Time;durP1;ratioP1;P1;durP2;ratioP2;P2;SDS_P1;SDS_P2;PMS_P1;PMS_P2;Temp;Humidity;BMP_temperature;BMP_pressure;BME280_temperature;BME280_humidity;BME280_pressure;Samples;Min_cycle;Max_cycle;Signal;HPM_P1;HPM_P2
2021/11/19 05:02:32;;;;;;;15.75;9.20;;;11.80;99.90;;;;;;5053146;23;21578;-69
2021/11/19 05:04:59;;;;;;;10.68;8.75;;;11.80;99.90;;;;;;5005829;28;20215;-70
2021/11/19 05:07:25;;;;;;;16.70;9.60;;;11.80;99.90;;;;;;5012080;28;20203;-69
2021/11/19 05:09:52;;;;;;;13.98;10.20;;;11.80;99.90;;;;;;5011214;28;20225;-71
2021/11/19 05:12:22;;;;;;;14.88;9.27;;;11.80;99.90;;;;;;4993139;28;20794;-70
2021/11/19 05:14:49;;;;;;;14.77;9.65;;;11.80;99.90;;;;;;4976719;28;20219;-70
2021/11/19 05:17:17;;;;;;;12.02;9.23;;;11.80;99.90;;;;;;4990980;28;20294;-70
2021/11/19 05:19:46;;;;;;;16.25;9.73;;;11.90;99.90;;;;;;4971492;28;20295;-70
2021/11/19 05:22:12;;;;;;;13.48;9.25;;;11.90;99.90;;;;;;4973037;28;20233;-70
2021/11/19 05:24:40;;;;;;;16.02;10.50;;;11.90;99.90;;;;;;4972230;28;20205;-73
2021/11/19 05:27:07;;;;;;;13.98;9.15;;;11.90;99.90;;;;;;4973156;28;20627;-70
2021/11/19 05:29:34;;;;;;;21.30;10.18;;;11.90;99.90;;;;;;4990341;28;20203;-71
2021/11/19 05:32:01;;;;;;;14.82;9.68;;;11.90;99.90;;;;;;4976742;28;20216;-70
2021/11/19 05:34:29;;;;;;;13.93;9.80;;;11.90;99.90;;;;;;4986581;28;20212;-71
2021/11/19 05:36:57;;;;;;;14.18;10.60;;;11.90;99.90;;;;;;4992277;28;20262;-70
2021/11/19 05:39:23;;;;;;;13.32;9.23;;;11.90;99.90;;;;;;4977803;28;20221;-70
2021/11/19 05:41:50;;;;;;;16.58;9.75;;;11.90;99.90;;;;;;4990026;28;20286;-71
2021/11/19 05:44:19;;;;;;;13.65;10.27;;;11.90;99.90;;;;;;4991235;28;20695;-70
2021/11/19 05:46:46;;;;;;;15.93;10.75;;;11.90;99.90;;;;;;4991900;28;20207;-70
2021/11/19 05:49:16;;;;;;;20.38;10.45;;;11.90;99.90;;;;;;4981542;28;20303;-71
2021/11/19 05:51:44;;;;;;;16.35;9.10;;;11.90;99.90;;;;;;4979214;28;20644;-70
2021/11/19 05:54:15;;;;;;;16.95;9.95;;;11.90;99.90;;;;;;4984596;28;20665;-70
2021/11/19 05:56:42;;;;;;;15.10;9.90;;;11.90;99.90;;;;;;4991771;28;20699;-71
2021/11/19 05:59:10;;;;;;;20.05;9.85;;;11.90;99.90;;;;;;4983707;28;20196;-71
2021/11/19 06:01:37;;;;;;;16.00;9.93;;;11.90;99.90;;;;;;4978451;28;20643;-71
2021/11/19 06:04:04;;;;;;;13.50;9.88;;;11.90;99.90;;;;;;4984924;28;20240;-70
2021/11/19 06:06:31;;;;;;;18.70;11.35;;;11.90;99.90;;;;;;4971452;28;20208;-71
2021/11/19 06:08:58;;;;;;;17.90;10.05;;;11.90;99.90;;;;;;4979818;28;20231;-70
2021/11/19 06:11:29;;;;;;;15.73;10.52;;;11.90;99.90;;;;;;4990743;28;20695;-71
2021/11/19 06:14:04;;;;;;;17.85;10.90;;;11.90;99.90;;;;;;4986649;28;20203;-70
2021/11/19 06:16:35;;;;;;;13.80;9.38;;;11.90;99.90;;;;;;4971686;28;20274;-70
2021/11/19 06:19:04;;;;;;;16.88;10.50;;;12.00;99.90;;;;;;4971391;28;20204;-72
2021/11/19 06:21:36;;;;;;;11.70;9.48;;;11.90;99.90;;;;;;4970962;28;20254;-70
2021/11/19 06:24:06;;;;;;;15.63;10.55;;;11.90;99.90;;;;;;4977936;28;20212;-71
2021/11/19 06:26:35;;;;;;;16.92;11.40;;;11.90;99.90;;;;;;4990932;28;20211;-71
2021/11/19 06:29:05;;;;;;;14.43;10.00;;;11.90;99.90;;;;;;4986691;28;20204;-71
2021/11/19 06:31:34;;;;;;;16.95;11.00;;;11.90;99.90;;;;;;4990734;28;20223;-70
2021/11/19 06:34:00;;;;;;;19.92;11.27;;;11.90;99.90;;;;;;4987248;28;20204;-70
2021/11/19 06:36:28;;;;;;;14.10;10.10;;;11.90;99.90;;;;;;4990047;28;20247;-71
2021/11/19 06:38:55;;;;;;;17.17;9.48;;;11.90;99.90;;;;;;4983194;28;20662;-70
2021/11/19 06:41:23;;;;;;;14.13;9.40;;;11.90;99.90;;;;;;4970718;28;20228;-70
2021/11/19 06:43:51;;;;;;;17.67;8.80;;;11.90;99.90;;;;;;4974600;28;20547;-72
2021/11/19 06:46:20;;;;;;;14.60;9.55;;;12.00;99.90;;;;;;4988570;28;20219;-70
2021/11/19 06:48:47;;;;;;;13.55;9.65;;;12.00;99.90;;;;;;4985404;28;20200;-70
2021/11/19 06:51:14;;;;;;;14.70;9.00;;;12.00;99.90;;;;;;4970277;28;20220;-69
2021/11/19 06:53:41;;;;;;;19.05;9.82;;;12.00;99.90;;;;;;4971213;28;20201;-70
2021/11/19 06:56:08;;;;;;;10.82;9.00;;;12.00;99.90;;;;;;4989233;28;20254;-70
2021/11/19 06:58:36;;;;;;;16.63;8.70;;;12.00;99.90;;;;;;4986932;28;20656;-69
2021/11/19 07:01:05;;;;;;;11.55;8.75;;;12.00;99.90;;;;;;4976783;28;20678;-70
2021/11/19 07:03:32;;;;;;;12.23;8.70;;;12.00;99.90;;;;;;4989157;28;20200;-72
2021/11/19 07:05:59;;;;;;;11.55;8.10;;;12.00;99.90;;;;;;4983958;28;20211;-72
2021/11/19 07:08:27;;;;;;;17.55;10.07;;;12.00;99.90;;;;;;4988368;28;20210;-72
2021/11/19 07:10:57;;;;;;;13.13;8.85;;;12.00;99.90;;;;;;4974020;28;20547;-72
2021/11/19 07:13:24;;;;;;;12.20;8.18;;;12.00;99.90;;;;;;4992472;28;20215;-72
2021/11/19 07:15:51;;;;;;;14.05;8.73;;;12.10;99.90;;;;;;4989896;28;20215;-71
2021/11/19 07:18:19;;;;;;;12.80;8.32;;;12.10;99.90;;;;;;4988952;28;20831;-71
2021/11/19 07:20:47;;;;;;;15.40;7.85;;;12.20;99.90;;;;;;4972394;28;20225;-72
2021/11/19 07:23:14;;;;;;;14.77;8.40;;;12.20;99.90;;;;;;4978313;28;20227;-72
2021/11/19 07:25:41;;;;;;;11.40;8.32;;;12.20;99.90;;;;;;4985985;28;20668;-71
2021/11/19 07:28:10;;;;;;;9.95;7.53;;;12.10;99.90;;;;;;4985044;28;20640;-73
2021/11/19 07:30:41;;;;;;;10.30;8.45;;;12.20;99.90;;;;;;4974187;28;20279;-72
2021/11/19 07:33:08;;;;;;;15.70;8.65;;;12.10;99.90;;;;;;4984177;28;20192;-72
2021/11/19 07:35:38;;;;;;;10.30;8.23;;;12.20;99.90;;;;;;4981103;28;20303;-73
2021/11/19 07:38:06;;;;;;;12.23;7.75;;;12.20;99.90;;;;;;4990113;28;20204;-71
2021/11/19 07:40:35;;;;;;;9.55;7.50;;;12.20;99.90;;;;;;4975934;28;20225;-73
2021/11/19 07:43:02;;;;;;;11.23;7.83;;;12.20;99.90;;;;;;4980489;28;20681;-73
2021/11/19 07:45:35;;;;;;;24.05;8.57;;;12.20;99.90;;;;;;4977249;28;20459;-74
2021/11/19 07:48:02;;;;;;;8.88;7.55;;;12.20;99.90;;;;;;4983261;28;20207;-72
2021/11/19 07:50:29;;;;;;;10.38;9.10;;;12.20;99.90;;;;;;4985995;28;20255;-73
2021/11/19 07:52:57;;;;;;;11.63;7.97;;;12.20;99.90;;;;;;4993337;28;20219;-72
2021/11/19 07:55:25;;;;;;;7.60;6.80;;;12.20;99.90;;;;;;4992600;28;20212;-72
2021/11/19 07:57:52;;;;;;;6.15;5.55;;;12.20;99.90;;;;;;4993656;28;20270;-72
2021/11/19 08:00:23;;;;;;;11.00;7.67;;;12.30;99.90;;;;;;4983065;28;20263;-72
2021/11/19 08:02:50;;;;;;;12.60;7.13;;;12.30;99.90;;;;;;4974178;28;20541;-72
2021/11/19 08:05:17;;;;;;;7.13;6.45;;;12.30;99.90;;;;;;4977950;28;20547;-71
2021/11/19 08:07:44;;;;;;;10.15;6.95;;;12.30;99.90;;;;;;4991422;28;20603;-72
2021/11/19 08:10:12;;;;;;;11.93;8.82;;;12.30;99.90;;;;;;4979320;28;20646;-72
2021/11/19 08:12:39;;;;;;;11.10;6.82;;;12.30;99.90;;;;;;4981743;28;20204;-71
2021/11/19 08:15:08;;;;;;;6.88;6.18;;;12.30;99.90;;;;;;4973906;28;20213;-72
2021/11/19 08:17:37;;;;;;;9.05;6.97;;;12.30;99.90;;;;;;4977986;28;20219;-74
2021/11/19 08:20:06;;;;;;;8.88;6.90;;;12.40;99.90;;;;;;4973510;28;20201;-72
2021/11/19 08:22:34;;;;;;;7.00;6.30;;;12.40;99.90;;;;;;4989058;28;20267;-72
2021/11/19 08:25:01;;;;;;;13.27;6.60;;;12.40;99.90;;;;;;4978042;28;20514;-72
2021/11/19 08:27:38;;;;;;;6.70;5.95;;;12.40;99.90;;;;;;4990052;28;20592;-73
2021/11/19 08:30:11;;;;;;;7.78;6.65;;;12.40;99.90;;;;;;4981934;28;20204;-72
2021/11/19 08:32:38;;;;;;;7.95;6.40;;;12.40;99.90;;;;;;4991034;28;20211;-72
2021/11/19 08:35:08;;;;;;;12.70;7.90;;;12.50;99.90;;;;;;4974088;28;20556;-71
2021/11/19 08:37:36;;;;;;;15.27;7.55;;;12.50;99.90;;;;;;4990203;28;20212;-71
2021/11/19 08:40:03;;;;;;;11.25;8.18;;;12.50;99.90;;;;;;4981832;28;20207;-72
2021/11/19 08:42:32;;;;;;;14.20;8.43;;;12.40;99.90;;;;;;4991643;28;20223;-72
2021/11/19 08:44:59;;;;;;;11.10;9.23;;;12.50;99.90;;;;;;4988506;28;20196;-71
2021/11/19 08:47:25;;;;;;;10.80;9.50;;;12.40;99.90;;;;;;4976122;28;20895;-72
2021/11/19 08:49:53;;;;;;;12.68;9.45;;;12.40;99.90;;;;;;4983472;28;20510;-71
2021/11/19 08:52:22;;;;;;;11.75;8.40;;;12.40;99.90;;;;;;4983333;28;20228;-72
2021/11/19 08:54:50;;;;;;;16.80;9.37;;;12.40;99.90;;;;;;4977531;28;20209;-72
2021/11/19 08:57:20;;;;;;;14.67;9.50;;;12.40;99.90;;;;;;4973177;28;20476;-71
2021/11/19 08:59:50;;;;;;;12.88;8.98;;;12.40;99.90;;;;;;4979491;28;20562;-72
2021/11/19 09:02:19;;;;;;;11.05;8.70;;;12.50;99.90;;;;;;4975634;28;20225;-72
2021/11/19 09:04:46;;;;;;;10.17;9.13;;;12.50;99.90;;;;;;4981068;28;20200;-71
2021/11/19 09:07:13;;;;;;;11.60;10.27;;;12.50;99.90;;;;;;4987017;28;20467;-71
2021/11/19 09:09:41;;;;;;;11.15;9.45;;;12.50;99.90;;;;;;4994811;28;20455;-72
2021/11/19 09:12:08;;;;;;;11.93;9.13;;;12.50;99.90;;;;;;4992675;28;20293;-71
2021/11/19 09:14:35;;;;;;;14.80;10.10;;;12.50;99.90;;;;;;4991804;28;20219;-73
2021/11/19 09:17:10;;;;;;;11.70;9.63;;;12.50;99.90;;;;;;4989341;28;20459;-71
2021/11/19 09:19:41;;;;;;;20.97;9.70;;;12.60;99.90;;;;;;4978128;28;20470;-71
2021/11/19 09:22:22;;;;;;;12.75;9.90;;;12.60;99.90;;;;;;4977472;28;20492;-72
2021/11/19 09:24:49;;;;;;;10.57;9.43;;;12.70;99.90;;;;;;4974711;28;20215;-72
2021/11/19 09:27:19;;;;;;;12.50;9.43;;;12.70;99.90;;;;;;4991372;28;20494;-71
2021/11/19 09:29:48;;;;;;;15.30;9.53;;;12.80;99.90;;;;;;4984866;28;20555;-71
2021/11/19 09:32:17;;;;;;;11.17;9.70;;;12.80;99.90;;;;;;4988241;28;20522;-72
2021/11/19 09:34:46;;;;;;;13.27;9.80;;;12.80;99.90;;;;;;4985866;28;20998;-71
2021/11/19 09:37:15;;;;;;;11.83;10.70;;;12.80;99.90;;;;;;4990312;28;20485;-70
2021/11/19 09:39:43;;;;;;;11.90;9.13;;;12.80;99.90;;;;;;4979077;28;20485;-72
2021/11/19 09:42:20;;;;;;;9.90;8.30;;;12.80;99.90;;;;;;4991247;28;20491;-73
2021/11/19 09:45:22;;;;;;;9.30;8.60;;;12.80;99.90;;;;;;4987393;28;20525;-71
2021/11/19 09:48:19;;;;;;;11.00;8.40;;;12.80;99.90;;;;;;4989833;28;21025;-70
2021/11/19 09:51:26;;;;;;;9.98;8.95;;;12.70;99.90;;;;;;4971791;28;20546;-71
2021/11/19 09:54:26;;;;;;;13.27;9.07;;;12.70;99.90;;;;;;4973305;28;20198;-72
2021/11/19 09:57:21;;;;;;;13.43;8.60;;;12.70;99.90;;;;;;4949965;28;20223;-72
2021/11/19 09:59:51;;;;;;;12.63;8.90;;;12.70;99.90;;;;;;4979922;28;20257;-72
2021/11/19 10:02:38;;;;;;;12.63;8.75;;;12.70;99.90;;;;;;4971496;28;21031;-71
2021/11/19 10:05:35;;;;;;;10.07;8.97;;;12.70;99.90;;;;;;4971851;28;20690;-71
2021/11/19 10:08:21;;;;;;;11.07;9.13;;;12.80;99.90;;;;;;4971455;28;20467;-71
2021/11/19 10:10:58;;;;;;;9.90;7.83;;;12.80;99.90;;;;;;4987423;28;20488;-71
2021/11/19 10:13:37;;;;;;;8.10;7.40;;;12.80;99.90;;;;;;5008389;28;20454;-71
2021/11/19 10:16:23;;;;;;;7.72;7.03;;;12.80;99.90;;;;;;4986167;28;20464;-71
2021/11/19 10:18:57;;;;;;;7.77;7.00;;;12.70;99.90;;;;;;4976311;28;20204;-71
2021/11/19 10:21:29;;;;;;;9.87;6.80;;;12.80;99.90;;;;;;4988430;28;20490;-71
2021/11/19 10:23:59;;;;;;;8.07;7.37;;;12.80;99.90;;;;;;4978220;28;20484;-70
2021/11/19 10:26:32;;;;;;;7.33;6.80;;;12.90;99.90;;;;;;4982625;28;20517;-72
2021/11/19 10:29:03;;;;;;;8.60;7.43;;;12.90;99.90;;;;;;4978848;28;20995;-73
2021/11/19 10:31:30;;;;;;;8.37;7.67;;;12.90;99.90;;;;;;4982789;28;20486;-72
2021/11/19 10:34:14;;;;;;;8.30;6.50;;;13.00;99.90;;;;;;4976743;28;20534;-71
2021/11/19 10:36:49;;;;;;;11.80;6.70;;;13.00;99.90;;;;;;4981199;28;20521;-73
2021/11/19 10:39:38;;;;;;;7.47;6.50;;;13.00;99.90;;;;;;4989550;28;20469;-73
2021/11/19 10:42:28;;;;;;;7.53;6.83;;;13.10;99.90;;;;;;4990209;28;20497;-71
2021/11/19 10:45:08;;;;;;;7.03;6.40;;;13.00;99.90;;;;;;4984404;28;20485;-69
2021/11/19 10:48:10;;;;;;;6.70;6.20;;;13.00;99.90;;;;;;4989928;28;20462;-70
2021/11/19 10:51:10;;;;;;;7.00;6.60;;;13.00;99.90;;;;;;4964679;28;20482;-72
2021/11/19 10:54:10;;;;;;;8.05;6.40;;;13.00;99.90;;;;;;4987724;28;20873;-70
2021/11/19 10:56:50;;;;;;;10.33;8.30;;;13.00;99.90;;;;;;4987242;28;20211;-71
2021/11/19 10:59:35;;;;;;;8.73;7.87;;;13.00;99.90;;;;;;4987523;28;20469;-70
2021/11/19 11:02:26;;;;;;;13.50;8.93;;;13.10;99.90;;;;;;4990518;28;20605;-71
2021/11/19 11:04:54;;;;;;;8.30;7.70;;;13.10;99.90;;;;;;4972285;28;20471;-70
2021/11/19 11:07:25;;;;;;;9.30;8.37;;;13.10;99.90;;;;;;4980687;28;20793;-71
2021/11/19 11:09:59;;;;;;;8.57;7.93;;;13.10;99.90;;;;;;4979113;28;20470;-70
2021/11/19 11:12:31;;;;;;;9.00;8.10;;;13.20;99.90;;;;;;4980855;28;20479;-70
2021/11/19 11:15:23;;;;;;;11.00;8.70;;;13.20;99.90;;;;;;4976998;28;21032;-70
2021/11/19 11:17:57;;;;;;;11.83;9.00;;;13.30;99.90;;;;;;4994208;28;20490;-72
2021/11/19 11:20:27;;;;;;;11.00;8.80;;;13.30;99.90;;;;;;4986119;28;20525;-72
2021/11/19 11:22:57;;;;;;;10.30;8.70;;;13.30;99.90;;;;;;4994462;28;20554;-73
2021/11/19 11:25:30;;;;;;;9.47;8.50;;;13.30;99.90;;;;;;4993703;28;20458;-71
2021/11/19 11:28:08;;;;;;;11.73;9.27;;;13.30;99.90;;;;;;4994451;28;20470;-72
2021/11/19 11:30:57;;;;;;;13.07;8.80;;;13.30;99.90;;;;;;4987569;28;20487;-71
2021/11/19 11:33:27;;;;;;;9.17;8.30;;;13.40;99.90;;;;;;4974788;28;20471;-69
2021/11/19 11:36:05;;;;;;;9.43;7.17;;;13.30;99.90;;;;;;4974085;28;20464;-71
2021/11/19 11:38:47;;;;;;;8.67;7.87;;;13.40;99.90;;;;;;4974599;28;20510;-70
2021/11/19 11:41:23;;;;;;;7.60;6.97;;;13.40;99.90;;;;;;4973703;28;20562;-70
2021/11/19 11:44:06;;;;;;;6.83;6.33;;;13.40;99.90;;;;;;4973955;28;20541;-71
2021/11/19 11:46:34;;;;;;;7.40;6.80;;;13.40;99.90;;;;;;4993722;28;20462;-71
2021/11/19 11:49:21;;;;;;;8.20;6.40;;;13.40;99.90;;;;;;4993525;28;20469;-73
2021/11/19 11:52:01;;;;;;;8.80;6.30;;;13.40;99.90;;;;;;4993772;28;21022;-70
2021/11/19 11:54:35;;;;;;;8.33;6.20;;;13.40;99.90;;;;;;4993406;28;20546;-72
2021/11/19 11:57:30;;;;;;;7.17;6.47;;;13.40;99.90;;;;;;4990564;28;20515;-71
2021/11/19 12:00:01;;;;;;;7.83;7.07;;;13.40;99.90;;;;;;4987305;28;21040;-72
2021/11/19 12:02:38;;;;;;;6.80;6.20;;;13.40;99.90;;;;;;4992078;28;20581;-71
2021/11/19 12:05:33;;;;;;;8.10;7.00;;;13.40;99.90;;;;;;4993356;28;20470;-73
2021/11/19 12:08:18;;;;;;;6.13;5.53;;;13.30;99.90;;;;;;4973964;28;20827;-71
2021/11/19 12:11:02;;;;;;;6.40;6.00;;;13.30;99.90;;;;;;4973364;28;20502;-73
2021/11/19 12:13:34;;;;;;;6.20;5.70;;;13.30;99.90;;;;;;4979654;28;20465;-71
2021/11/19 12:16:11;;;;;;;7.70;6.27;;;13.30;99.90;;;;;;4982801;28;20847;-71
2021/11/19 12:18:44;;;;;;;6.03;5.53;;;13.30;99.90;;;;;;4974077;28;20530;-71
2021/11/19 12:21:21;;;;;;;7.30;5.80;;;13.30;99.90;;;;;;4992304;28;20495;-71
2021/11/19 12:23:53;;;;;;;7.13;5.80;;;13.30;99.90;;;;;;4993642;28;20491;-72
2021/11/19 12:26:43;;;;;;;7.10;4.90;;;13.20;99.90;;;;;;4993260;28;20466;-74
2021/11/19 12:29:27;;;;;;;8.23;5.67;;;13.20;99.90;;;;;;4987067;28;20474;-71
2021/11/19 12:32:03;;;;;;;8.10;5.30;;;13.20;99.90;;;;;;4986790;28;20490;-72
2021/11/19 12:34:35;;;;;;;7.03;5.93;;;13.20;99.90;;;;;;4992705;28;20998;-74
2021/11/19 12:37:10;;;;;;;7.80;4.80;;;13.10;99.90;;;;;;4993367;28;20474;-71
2021/11/19 12:39:40;;;;;;;7.97;5.13;;;13.10;99.90;;;;;;4992135;28;20999;-72
2021/11/19 12:42:13;;;;;;;6.60;5.83;;;13.10;99.90;;;;;;4992830;28;20486;-72
2021/11/19 12:45:14;;;;;;;5.87;5.40;;;13.00;99.90;;;;;;4992481;28;20917;-71
2021/11/19 12:48:20;;;;;;;7.63;5.70;;;13.00;99.90;;;;;;4970420;28;20467;-72
2021/11/19 12:50:53;;;;;;;7.93;6.72;;;12.90;99.90;;;;;;4977049;28;20497;-71
2021/11/19 12:53:50;;;;;;;7.00;6.32;;;13.00;99.90;;;;;;4992591;28;20335;-71
2021/11/19 12:56:22;;;;;;;9.45;6.53;;;13.00;99.90;;;;;;4992139;28;20234;-71
2021/11/19 12:58:53;;;;;;;7.17;6.37;;;13.00;99.90;;;;;;4991082;28;20566;-71
2021/11/19 13:01:31;;;;;;;6.83;5.57;;;13.00;99.90;;;;;;4988671;28;20487;-70
2021/11/19 13:04:19;;;;;;;10.57;6.07;;;13.00;99.90;;;;;;4973097;28;20975;-71
2021/11/19 13:06:54;;;;;;;8.80;5.80;;;13.00;99.90;;;;;;4977244;28;20498;-70
2021/11/19 13:09:45;;;;;;;6.80;6.07;;;13.00;99.90;;;;;;4984656;28;20475;-70
2021/11/19 13:12:28;;;;;;;8.20;7.00;;;13.00;99.90;;;;;;4986458;28;20479;-70
2021/11/19 13:15:26;;;;;;;12.00;6.40;;;13.00;99.90;;;;;;4992549;28;20459;-72
2021/11/19 13:18:08;;;;;;;11.00;6.00;;;13.00;99.90;;;;;;4992404;28;20467;-72
2021/11/19 13:20:53;;;;;;;6.83;5.73;;;13.00;99.90;;;;;;4992086;28;20483;-73
2021/11/19 13:23:52;;;;;;;11.63;5.97;;;13.00;99.90;;;;;;4992269;28;20937;-71
2021/11/19 13:26:49;;;;;;;4.93;4.40;;;13.00;99.90;;;;;;4991947;28;20980;-73
2021/11/19 13:29:50;;;;;;;6.13;5.10;;;13.00;99.90;;;;;;4972050;28;20459;-71
2021/11/19 13:32:54;;;;;;;4.87;4.30;;;13.00;99.90;;;;;;4972472;28;20498;-71
2021/11/19 13:36:05;;;;;;;4.50;4.30;;;13.00;99.90;;;;;;4972044;28;20464;-70
2021/11/19 13:39:14;;;;;;;9.80;4.87;;;13.10;99.90;;;;;;4971559;28;20471;-71
2021/11/19 13:42:08;;;;;;;8.50;3.30;;;13.10;99.90;;;;;;4980752;28;20833;-71
2021/11/19 13:44:53;;;;;;;3.60;3.00;;;13.10;99.90;;;;;;4991187;28;20491;-71
2021/11/19 13:47:40;;;;;;;4.17;3.30;;;13.10;99.90;;;;;;4991835;28;20466;-72
2021/11/19 13:50:15;;;;;;;5.53;4.13;;;13.10;99.90;;;;;;4991347;28;20459;-71
2021/11/19 13:52:46;;;;;;;8.63;3.20;;;13.10;99.90;;;;;;4991479;28;20488;-70
2021/11/19 13:55:24;;;;;;;4.93;2.80;;;13.10;99.90;;;;;;4989001;28;20542;-71
2021/11/19 13:57:54;;;;;;;9.50;3.47;;;13.20;99.90;;;;;;4976375;28;20462;-72
2021/11/19 14:00:33;;;;;;;10.53;3.60;;;13.10;99.90;;;;;;4991109;28;20800;-72
2021/11/19 14:03:00;;;;;;;8.07;3.80;;;13.10;99.90;;;;;;4991392;28;20504;-73
2021/11/19 14:05:33;;;;;;;4.93;3.30;;;13.10;99.90;;;;;;4990518;28;20490;-71
2021/11/19 14:08:01;;;;;;;3.40;3.10;;;13.10;99.90;;;;;;4991311;28;20463;-70
2021/11/19 14:10:36;;;;;;;3.17;2.77;;;13.10;99.90;;;;;;4988611;28;20515;-70
2021/11/19 14:13:07;;;;;;;3.70;3.30;;;13.10;99.90;;;;;;4990964;28;20469;-71
2021/11/19 14:15:37;;;;;;;3.03;2.83;;;13.10;99.90;;;;;;4990793;28;20578;-73
2021/11/19 14:18:19;;;;;;;3.30;3.10;;;13.10;99.90;;;;;;4990091;28;20470;-71
2021/11/19 14:23:44;;;;;;;3.60;3.30;;;13.10;99.90;;;;;;4990086;28;20485;-72
2021/11/19 14:26:21;;;;;;;4.43;3.40;;;13.10;99.90;;;;;;4970885;28;20886;-71
2021/11/19 14:28:51;;;;;;;5.17;3.57;;;13.00;99.90;;;;;;4971375;28;20484;-73
2021/11/19 14:31:20;;;;;;;4.37;3.80;;;13.00;99.90;;;;;;4987977;28;20495;-72
2021/11/19 14:34:05;;;;;;;5.90;3.33;;;13.00;99.90;;;;;;4990916;28;20474;-75
2021/11/19 14:36:45;;;;;;;7.80;3.93;;;13.00;99.90;;;;;;4990655;28;20466;-71
2021/11/19 14:39:17;;;;;;;4.67;3.20;;;13.00;99.90;;;;;;4989743;28;20466;-71
2021/11/19 14:41:48;;;;;;;3.27;2.90;;;13.00;99.90;;;;;;4980533;28;20479;-72
2021/11/19 14:44:20;;;;;;;4.37;3.30;;;12.90;99.90;;;;;;4970929;28;20607;-72
2021/11/19 14:46:51;;;;;;;3.77;3.37;;;12.90;99.90;;;;;;4972428;28;20500;-72
2021/11/19 14:49:26;;;;;;;5.00;3.53;;;12.90;99.90;;;;;;4972906;28;20562;-71
2021/11/19 14:52:11;;;;;;;5.20;3.37;;;12.90;99.90;;;;;;4973637;28;20487;-72
2021/11/19 14:54:41;;;;;;;3.43;3.00;;;12.90;99.90;;;;;;4973479;28;20892;-72
2021/11/19 14:57:23;;;;;;;6.53;3.50;;;12.80;99.90;;;;;;4974254;28;20526;-72
2021/11/19 14:59:55;;;;;;;4.93;4.40;;;12.80;99.90;;;;;;4993468;28;20462;-72
2021/11/19 15:02:28;;;;;;;5.83;3.07;;;12.80;99.90;;;;;;4992367;28;20491;-72
2021/11/19 15:04:58;;;;;;;8.83;3.23;;;12.80;99.90;;;;;;4991617;28;20498;-71
2021/11/19 15:07:50;;;;;;;5.77;3.07;;;12.80;99.90;;;;;;4991585;28;20466;-71
2021/11/19 15:10:37;;;;;;;3.80;3.20;;;12.80;99.90;;;;;;4990874;28;20470;-71
2021/11/19 15:13:30;;;;;;;6.37;3.97;;;12.80;99.90;;;;;;4991133;28;20561;-71
2021/11/19 15:16:11;;;;;;;4.60;3.53;;;12.80;99.90;;;;;;4990300;28;20467;-70
2021/11/19 15:18:46;;;;;;;4.83;3.60;;;12.80;99.90;;;;;;4986620;28;20467;-71
2021/11/19 15:21:27;;;;;;;9.02;3.55;;;12.70;99.90;;;;;;4990191;28;20582;-71
2021/11/19 15:23:59;;;;;;;4.63;3.63;;;12.70;99.90;;;;;;4990401;28;20263;-72
2021/11/19 15:26:42;;;;;;;8.67;3.37;;;12.70;99.90;;;;;;4989886;28;20211;-73
2021/11/19 15:29:35;;;;;;;4.53;3.80;;;12.70;99.90;;;;;;4977969;28;20460;-74
2021/11/19 15:32:11;;;;;;;5.33;4.10;;;12.80;99.90;;;;;;4974268;28;20575;-73
2021/11/19 15:35:06;;;;;;;5.37;4.30;;;12.80;99.90;;;;;;4979086;28;20458;-71
2021/11/19 15:37:36;;;;;;;5.50;3.93;;;12.80;99.90;;;;;;4995300;28;20462;-73
2021/11/19 15:40:11;;;;;;;6.80;4.10;;;12.80;99.90;;;;;;4986141;28;20470;-70
2021/11/19 15:42:38;;;;;;;4.00;3.40;;;12.70;99.90;;;;;;4976913;28;20866;-70
2021/11/19 15:45:06;;;;;;;3.92;3.50;;;12.70;99.90;;;;;;4971784;28;20228;-72
2021/11/19 15:47:33;;;;;;;3.72;3.25;;;12.70;99.90;;;;;;4981289;28;20200;-71
2021/11/19 15:50:02;;;;;;;4.53;4.10;;;12.70;99.90;;;;;;4971177;28;20220;-68
2021/11/19 15:52:33;;;;;;;4.43;4.03;;;12.70;99.90;;;;;;4971558;28;20240;-71
2021/11/19 15:55:13;;;;;;;6.78;5.20;;;12.70;99.90;;;;;;4970890;28;20204;-70
2021/11/19 15:58:06;;;;;;;6.30;4.20;;;12.60;99.90;;;;;;4974108;28;20211;-70
2021/11/19 16:00:35;;;;;;;5.15;4.07;;;12.60;99.90;;;;;;4993069;28;20465;-69
2021/11/19 16:03:47;;;;;;;4.25;3.92;;;12.60;99.90;;;;;;5011627;28;20574;-70
2021/11/19 16:06:40;;;;;;;4.07;3.88;;;12.60;99.90;;;;;;5001173;28;20211;-70
2021/11/19 16:09:14;;;;;;;3.85;3.53;;;12.60;99.90;;;;;;4993036;28;20294;-71
2021/11/19 16:11:55;;;;;;;4.50;3.47;;;12.60;99.90;;;;;;4980893;28;20625;-70
2021/11/19 16:14:27;;;;;;;3.47;3.25;;;12.60;99.90;;;;;;4978595;28;20462;-71
2021/11/19 16:16:57;;;;;;;4.93;3.65;;;12.60;99.90;;;;;;4991908;28;20204;-70
2021/11/19 16:19:25;;;;;;;3.40;3.20;;;12.60;99.90;;;;;;4991621;28;20215;-70
2021/11/19 16:21:56;;;;;;;3.60;3.22;;;12.60;99.90;;;;;;4992900;28;20483;-71
2021/11/19 16:24:25;;;;;;;4.22;3.22;;;12.60;99.90;;;;;;4987049;28;20775;-70
2021/11/19 16:26:55;;;;;;;4.53;3.55;;;12.60;99.90;;;;;;4992563;28;20215;-71
2021/11/19 16:29:23;;;;;;;5.38;3.50;;;12.60;99.90;;;;;;4986240;28;20677;-68
2021/11/19 16:31:50;;;;;;;6.13;3.40;;;12.60;99.90;;;;;;4992894;28;20219;-70
2021/11/19 16:34:18;;;;;;;4.60;3.25;;;12.60;99.90;;;;;;4975485;28;20869;-69
2021/11/19 16:36:45;;;;;;;5.10;4.03;;;12.60;99.90;;;;;;4993436;28;20205;-69
2021/11/19 16:39:17;;;;;;;8.15;4.90;;;12.60;99.90;;;;;;4991740;28;20471;-70
2021/11/19 16:41:45;;;;;;;3.87;3.57;;;12.60;99.90;;;;;;4992217;28;20228;-70
2021/11/19 16:44:12;;;;;;;10.43;3.47;;;12.60;99.90;;;;;;4992723;28;20827;-70
2021/11/19 16:46:40;;;;;;;4.95;3.75;;;12.60;99.90;;;;;;4992111;28;20305;-69
2021/11/19 16:49:14;;;;;;;4.40;4.03;;;12.60;99.90;;;;;;4991822;28;20207;-72
2021/11/19 16:51:43;;;;;;;8.13;3.60;;;12.60;99.90;;;;;;4988481;28;20230;-70
2021/11/19 16:54:11;;;;;;;3.33;3.03;;;12.60;99.90;;;;;;5000547;28;20806;-68
2021/11/19 16:56:42;;;;;;;6.80;3.63;;;12.60;99.90;;;;;;4996905;28;21041;-70
2021/11/19 16:59:10;;;;;;;6.50;5.38;;;12.60;99.90;;;;;;4995886;28;20454;-70
2021/11/19 17:01:39;;;;;;;4.67;3.93;;;12.50;99.90;;;;;;5008100;28;20605;-69
2021/11/19 17:04:07;;;;;;;6.00;3.95;;;12.50;99.90;;;;;;4978284;28;21004;-70
2021/11/19 17:06:35;;;;;;;5.77;3.20;;;12.60;99.90;;;;;;4978211;28;20606;-70
2021/11/19 17:09:04;;;;;;;10.02;3.83;;;12.50;99.90;;;;;;4992513;28;20889;-69
2021/11/19 17:11:31;;;;;;;4.60;2.90;;;12.60;99.90;;;;;;4992051;28;20228;-69
2021/11/19 17:13:59;;;;;;;6.72;3.50;;;12.60;99.90;;;;;;4992559;28;20196;-71
2021/11/19 17:16:27;;;;;;;6.38;3.60;;;12.50;99.90;;;;;;4991386;28;20200;-70
2021/11/19 17:18:58;;;;;;;7.57;3.22;;;12.60;99.90;;;;;;4985482;28;20213;-71
2021/11/19 17:21:27;;;;;;;3.40;2.70;;;12.60;99.90;;;;;;4995275;28;20224;-69
2021/11/19 17:23:54;;;;;;;3.92;2.88;;;12.60;99.90;;;;;;4994200;28;20254;-70
2021/11/19 17:26:21;;;;;;;3.60;3.40;;;12.50;99.90;;;;;;4995363;28;20623;-70
2021/11/19 17:28:50;;;;;;;6.90;4.30;;;12.50;99.90;;;;;;4999546;28;20548;-70
2021/11/19 17:31:20;;;;;;;4.28;2.90;;;12.50;99.90;;;;;;4992011;28;20339;-70
2021/11/19 17:33:47;;;;;;;3.73;3.50;;;12.50;99.90;;;;;;4992635;28;20235;-69
2021/11/19 17:36:14;;;;;;;3.00;2.80;;;12.50;99.90;;;;;;4993802;28;20469;-69
2021/11/19 17:38:42;;;;;;;8.02;3.92;;;12.60;99.90;;;;;;5000791;28;20310;-69
2021/11/19 17:41:10;;;;;;;4.57;3.47;;;12.50;99.90;;;;;;5011297;28;20239;-69
2021/11/19 17:43:38;;;;;;;6.18;3.35;;;12.50;99.90;;;;;;4994926;28;20200;-70
2021/11/19 17:46:14;;;;;;;4.03;3.57;;;12.50;99.90;;;;;;4990469;28;20220;-69
2021/11/19 17:48:47;;;;;;;10.73;4.37;;;12.60;99.90;;;;;;4990674;28;20466;-70
2021/11/19 17:51:16;;;;;;;3.70;3.00;;;12.60;99.90;;;;;;4989948;28;20502;-70
2021/11/19 17:53:46;;;;;;;3.80;3.20;;;12.60;99.90;;;;;;4991613;28;20466;-69
2021/11/19 17:56:21;;;;;;;8.07;3.90;;;12.60;99.90;;;;;;4995156;28;20307;-70
2021/11/19 17:58:49;;;;;;;6.57;3.45;;;12.60;99.90;;;;;;4973939;28;20498;-69
2021/11/19 18:01:17;;;;;;;3.23;3.03;;;12.60;99.90;;;;;;4986154;28;20233;-70
2021/11/19 18:03:45;;;;;;;3.15;3.03;;;12.60;99.90;;;;;;4975993;28;20475;-69
2021/11/19 18:06:13;;;;;;;4.45;3.55;;;12.60;99.90;;;;;;4987273;28;20694;-71
2021/11/19 18:08:44;;;;;;;5.10;3.83;;;12.60;99.90;;;;;;4970999;28;20220;-69
2021/11/19 18:11:13;;;;;;;3.60;3.30;;;12.60;99.90;;;;;;4971363;28;20491;-70
2021/11/19 18:13:41;;;;;;;5.70;5.35;;;12.60;99.90;;;;;;4988783;28;20227;-69
2021/11/19 18:16:12;;;;;;;3.42;2.90;;;12.60;99.90;;;;;;4975574;28;20201;-69
2021/11/19 18:18:39;;;;;;;6.13;3.90;;;12.60;99.90;;;;;;4980041;28;20227;-70
2021/11/19 18:21:10;;;;;;;5.50;4.20;;;12.60;99.90;;;;;;4988563;28;20490;-70
2021/11/19 18:23:38;;;;;;;5.15;4.10;;;12.60;99.90;;;;;;4975626;28;20222;-70